sensor_id;sensor_type;location;lat;lon;timestamp;pressure;altitude;pressure_sealevel;temperature;humidity
38852;BME280;24605;50.092;9.182;2023-04-24T00:01:00;96765.59;;;10.60;100.00
38852;BME280;24605;50.092;9.182;2023-04-24T00:03:27;96767.59;;;10.51;100.00
38852;BME280;24605;50.092;9.182;2023-04-24T00:05:54;96775.03;;;10.47;100.00
38852;BME280;24605;50.092;9.182;2023-04-24T00:08:22;96760.50;;;10.38;100.00
38852;BME280;24605;50.092;9.182;2023-04-24T00:10:49;96768.59;;;10.50;100.00
38852;BME280;24605;50.092;9.182;2023-04-24T00:13:15;96757.06;;;10.38;100.00
38852;BME280;24605;50.092;9.182;2023-04-24T00:15:41;96764.56;;;10.47;100.00
38852;BME280;24605;50.092;9.182;2023-04-24T00:18:08;96759.94;;;10.56;100.00
38852;BME280;24605;50.092;9.182;2023-04-24T00:20:34;96750.63;;;10.47;100.00
38852;BME280;24605;50.092;9.182;2023-04-24T00:23:01;96757.28;;;10.49;100.00
38852;BME280;24605;50.092;9.182;2023-04-24T00:25:29;96744.19;;;10.43;100.00
38852;BME280;24605;50.092;9.182;2023-04-24T00:27:55;96741.50;;;10.36;100.00
38852;BME280;24605;50.092;9.182;2023-04-24T00:30:22;96739.69;;;10.37;100.00
38852;BME280;24605;50.092;9.182;2023-04-24T00:32:48;96729.97;;;10.17;100.00
38852;BME280;24605;50.092;9.182;2023-04-24T00:35:15;96728.13;;;10.04;100.00
38852;BME280;24605;50.092;9.182;2023-04-24T00:37:41;96730.16;;;10.15;100.00
38852;BME280;24605;50.092;9.182;2023-04-24T00:40:08;96733.00;;;10.21;100.00
38852;BME280;24605;50.092;9.182;2023-04-24T00:42:36;96738.47;;;10.26;100.00
38852;BME280;24605;50.092;9.182;2023-04-24T00:45:04;96725.84;;;10.43;100.00
38852;BME280;24605;50.092;9.182;2023-04-24T00:47:32;96722.53;;;10.27;100.00
38852;BME280;24605;50.092;9.182;2023-04-24T00:50:01;96729.06;;;10.38;100.00
38852;BME280;24605;50.092;9.182;2023-04-24T00:52:27;96720.56;;;10.36;100.00
38852;BME280;24605;50.092;9.182;2023-04-24T00:54:56;96722.78;;;10.32;100.00
38852;BME280;24605;50.092;9.182;2023-04-24T00:57:22;96647.50;;;9.86;100.00
38852;BME280;24605;50.092;9.182;2023-04-24T00:59:52;96714.50;;;10.29;100.00
38852;BME280;24605;50.092;9.182;2023-04-24T01:02:19;96709.06;;;10.30;100.00
38852;BME280;24605;50.092;9.182;2023-04-24T01:04:47;96703.88;;;10.37;100.00
38852;BME280;24605;50.092;9.182;2023-04-24T01:07:16;96705.84;;;10.35;100.00
38852;BME280;24605;50.092;9.182;2023-04-24T01:09:44;96709.25;;;10.29;100.00
38852;BME280;24605;50.092;9.182;2023-04-24T01:12:12;96695.97;;;10.30;100.00
38852;BME280;24605;50.092;9.182;2023-04-24T01:14:38;96714.88;;;10.26;100.00
38852;BME280;24605;50.092;9.182;2023-04-24T01:17:06;96717.72;;;10.24;100.00
38852;BME280;24605;50.092;9.182;2023-04-24T01:19:34;96699.16;;;10.12;100.00
38852;BME280;24605;50.092;9.182;2023-04-24T01:22:02;96718.50;;;10.25;100.00
38852;BME280;24605;50.092;9.182;2023-04-24T01:24:31;96711.44;;;10.18;100.00
38852;BME280;24605;50.092;9.182;2023-04-24T01:26:57;96701.94;;;10.11;100.00
38852;BME280;24605;50.092;9.182;2023-04-24T01:29:24;96722.50;;;10.14;100.00
38852;BME280;24605;50.092;9.182;2023-04-24T01:31:50;96714.44;;;10.09;100.00
38852;BME280;24605;50.092;9.182;2023-04-24T01:34:17;96705.19;;;10.13;100.00
38852;BME280;24605;50.092;9.182;2023-04-24T01:36:45;96713.63;;;10.08;100.00
38852;BME280;24605;50.092;9.182;2023-04-24T01:39:12;96691.19;;;9.85;100.00
38852;BME280;24605;50.092;9.182;2023-04-24T01:41:40;96708.38;;;10.08;100.00
38852;BME280;24605;50.092;9.182;2023-04-24T01:44:07;96710.66;;;10.18;100.00
38852;BME280;24605;50.092;9.182;2023-04-24T01:46:33;96716.47;;;10.13;100.00
38852;BME280;24605;50.092;9.182;2023-04-24T01:49:01;96710.03;;;10.16;100.00
38852;BME280;24605;50.092;9.182;2023-04-24T01:51:28;96701.97;;;10.17;100.00
38852;BME280;24605;50.092;9.182;2023-04-24T01:53:55;96702.00;;;10.24;100.00
38852;BME280;24605;50.092;9.182;2023-04-24T01:56:22;96699.16;;;10.19;100.00
38852;BME280;24605;50.092;9.182;2023-04-24T01:58:50;96702.78;;;10.25;100.00
38852;BME280;24605;50.092;9.182;2023-04-24T02:01:18;96695.53;;;10.13;100.00
38852;BME280;24605;50.092;9.182;2023-04-24T02:03:45;96702.97;;;10.16;100.00
38852;BME280;24605;50.092;9.182;2023-04-24T02:06:11;96703.63;;;10.25;100.00
38852;BME280;24605;50.092;9.182;2023-04-24T02:08:38;96698.72;;;10.15;100.00
38852;BME280;24605;50.092;9.182;2023-04-24T02:11:04;96707.34;;;10.02;100.00
38852;BME280;24605;50.092;9.182;2023-04-24T02:13:31;96706.00;;;10.13;100.00
38852;BME280;24605;50.092;9.182;2023-04-24T02:15:59;96711.66;;;10.17;100.00
38852;BME280;24605;50.092;9.182;2023-04-24T02:18:25;96705.38;;;10.11;100.00
38852;BME280;24605;50.092;9.182;2023-04-24T02:20:52;96704.56;;;10.11;100.00
38852;BME280;24605;50.092;9.182;2023-04-24T02:23:19;96698.13;;;10.07;100.00
38852;BME280;24605;50.092;9.182;2023-04-24T02:25:45;96701.97;;;10.17;100.00
38852;BME280;24605;50.092;9.182;2023-04-24T02:28:12;96693.53;;;10.22;100.00
38852;BME280;24605;50.092;9.182;2023-04-24T02:30:38;96690.69;;;10.17;100.00
38852;BME280;24605;50.092;9.182;2023-04-24T02:33:12;96693.09;;;10.18;100.00
38852;BME280;24605;50.092;9.182;2023-04-24T02:35:38;96686.25;;;10.17;100.00
38852;BME280;24605;50.092;9.182;2023-04-24T02:38:05;96686.06;;;10.12;100.00
38852;BME280;24605;50.092;9.182;2023-04-24T02:40:31;96679.16;;;10.04;100.00
38852;BME280;24605;50.092;9.182;2023-04-24T02:42:58;96693.50;;;10.09;100.00
38852;BME280;24605;50.092;9.182;2023-04-24T02:45:24;96688.25;;;10.15;100.00
38852;BME280;24605;50.092;9.182;2023-04-24T02:47:51;96684.63;;;10.10;100.00
38852;BME280;24605;50.092;9.182;2023-04-24T02:50:18;96693.09;;;10.18;100.00
38852;BME280;24605;50.092;9.182;2023-04-24T02:52:45;96682.25;;;10.22;100.00
38852;BME280;24605;50.092;9.182;2023-04-24T02:55:12;96683.66;;;10.24;100.00
38852;BME280;24605;50.092;9.182;2023-04-24T02:57:39;96682.25;;;10.28;100.00
38852;BME280;24605;50.092;9.182;2023-04-24T03:00:06;96679.44;;;10.30;100.00
38852;BME280;24605;50.092;9.182;2023-04-24T03:02:34;96677.22;;;10.27;100.00
38852;BME280;24605;50.092;9.182;2023-04-24T03:05:00;96672.78;;;10.34;100.00
38852;BME280;24605;50.092;9.182;2023-04-24T03:07:28;96677.06;;;10.42;100.00
38852;BME280;24605;50.092;9.182;2023-04-24T03:09:56;96680.44;;;10.29;100.00
38852;BME280;24605;50.092;9.182;2023-04-24T03:12:23;96688.16;;;10.37;100.00
38852;BME280;24605;50.092;9.182;2023-04-24T03:14:49;96685.88;;;10.34;100.00
38852;BME280;24605;50.092;9.182;2023-04-24T03:17:16;96686.72;;;10.34;100.00
38852;BME280;24605;50.092;9.182;2023-04-24T03:19:42;96688.69;;;10.26;100.00
38852;BME280;24605;50.092;9.182;2023-04-24T03:22:09;96685.25;;;10.18;100.00
38852;BME280;24605;50.092;9.182;2023-04-24T03:24:37;96689.69;;;10.25;100.00
38852;BME280;24605;50.092;9.182;2023-04-24T03:27:04;96686.88;;;10.19;100.00
38852;BME280;24605;50.092;9.182;2023-04-24T03:29:30;96683.22;;;10.14;100.00
38852;BME280;24605;50.092;9.182;2023-04-24T03:31:57;96635.78;;;9.75;100.00
38852;BME280;24605;50.092;9.182;2023-04-24T03:34:23;96679.59;;;10.08;100.00
38852;BME280;24605;50.092;9.182;2023-04-24T03:36:50;96686.44;;;10.09;100.00
38852;BME280;24605;50.092;9.182;2023-04-24T03:39:17;96690.22;;;10.00;100.00
38852;BME280;24605;50.092;9.182;2023-04-24T03:41:45;96704.31;;;9.99;100.00
38852;BME280;24605;50.092;9.182;2023-04-24T03:44:12;96699.91;;;9.99;100.00
38852;BME280;24605;50.092;9.182;2023-04-24T03:46:38;96697.28;;;10.06;100.00
38852;BME280;24605;50.092;9.182;2023-04-24T03:49:04;96692.06;;;10.06;100.00
38852;BME280;24605;50.092;9.182;2023-04-24T03:51:31;96696.47;;;9.99;100.00
38852;BME280;24605;50.092;9.182;2023-04-24T03:53:57;96707.94;;;9.98;100.00
38852;BME280;24605;50.092;9.182;2023-04-24T03:56:24;96709.94;;;9.89;100.00
38852;BME280;24605;50.092;9.182;2023-04-24T03:58:52;96679.81;;;9.65;100.00
38852;BME280;24605;50.092;9.182;2023-04-24T04:01:18;96709.28;;;9.80;100.00
38852;BME280;24605;50.092;9.182;2023-04-24T04:03:45;96714.72;;;9.79;100.00
38852;BME280;24605;50.092;9.182;2023-04-24T04:06:12;96710.91;;;9.81;100.00
38852;BME280;24605;50.092;9.182;2023-04-24T04:08:38;96712.47;;;9.76;100.00
38852;BME280;24605;50.092;9.182;2023-04-24T04:11:05;96722.16;;;9.75;100.00
38852;BME280;24605;50.092;9.182;2023-04-24T04:13:31;96711.66;;;9.68;100.00
38852;BME280;24605;50.092;9.182;2023-04-24T04:16:00;96713.66;;;9.66;100.00
38852;BME280;24605;50.092;9.182;2023-04-24T04:18:26;96715.47;;;9.66;100.00
38852;BME280;24605;50.092;9.182;2023-04-24T04:20:53;96720.47;;;9.61;100.00
38852;BME280;24605;50.092;9.182;2023-04-24T04:23:19;96717.25;;;9.59;100.00
38852;BME280;24605;50.092;9.182;2023-04-24T04:25:46;96728.50;;;9.59;100.00
38852;BME280;24605;50.092;9.182;2023-04-24T04:28:13;96715.19;;;9.54;100.00
38852;BME280;24605;50.092;9.182;2023-04-24T04:30:40;96724.56;;;9.41;100.00
38852;BME280;24605;50.092;9.182;2023-04-24T04:33:08;96722.88;;;9.27;100.00
38852;BME280;24605;50.092;9.182;2023-04-24T04:35:35;96729.91;;;9.27;100.00
38852;BME280;24605;50.092;9.182;2023-04-24T04:38:02;96738.31;;;9.22;100.00
38852;BME280;24605;50.092;9.182;2023-04-24T04:40:29;96739.47;;;9.13;100.00
38852;BME280;24605;50.092;9.182;2023-04-24T04:42:56;96735.00;;;9.06;100.00
38852;BME280;24605;50.092;9.182;2023-04-24T04:45:23;96738.09;;;9.17;100.00
38852;BME280;24605;50.092;9.182;2023-04-24T04:47:52;96744.25;;;9.09;100.00
38852;BME280;24605;50.092;9.182;2023-04-24T04:50:21;96748.56;;;9.17;100.00
38852;BME280;24605;50.092;9.182;2023-04-24T04:52:48;96747.28;;;9.06;100.00
38852;BME280;24605;50.092;9.182;2023-04-24T04:55:14;96757.25;;;8.96;100.00
38852;BME280;24605;50.092;9.182;2023-04-24T04:57:41;96752.16;;;8.87;100.00
38852;BME280;24605;50.092;9.182;2023-04-24T05:00:08;96761.28;;;8.98;100.00
38852;BME280;24605;50.092;9.182;2023-04-24T05:02:37;96762.84;;;8.92;100.00
38852;BME280;24605;50.092;9.182;2023-04-24T05:05:04;96765.97;;;8.81;100.00
38852;BME280;24605;50.092;9.182;2023-04-24T05:07:32;96768.63;;;8.88;100.00
38852;BME280;24605;50.092;9.182;2023-04-24T05:09:59;96774.72;;;8.73;100.00
38852;BME280;24605;50.092;9.182;2023-04-24T05:12:25;96777.53;;;8.72;100.00
38852;BME280;24605;50.092;9.182;2023-04-24T05:14:52;96777.09;;;8.68;100.00
38852;BME280;24605;50.092;9.182;2023-04-24T05:17:19;96780.50;;;8.69;100.00
38852;BME280;24605;50.092;9.182;2023-04-24T05:19:45;96788.00;;;8.72;100.00
38852;BME280;24605;50.092;9.182;2023-04-24T05:22:13;96792.78;;;8.68;100.00
38852;BME280;24605;50.092;9.182;2023-04-24T05:24:41;96790.72;;;8.64;100.00
38852;BME280;24605;50.092;9.182;2023-04-24T05:27:07;96799.16;;;8.66;100.00
38852;BME280;24605;50.092;9.182;2023-04-24T05:29:34;96805.38;;;8.65;100.00
38852;BME280;24605;50.092;9.182;2023-04-24T05:32:00;96779.56;;;8.55;100.00
38852;BME280;24605;50.092;9.182;2023-04-24T05:34:27;96790.09;;;8.61;100.00
38852;BME280;24605;50.092;9.182;2023-04-24T05:36:53;96793.94;;;8.66;100.00
38852;BME280;24605;50.092;9.182;2023-04-24T05:39:20;96794.81;;;8.73;100.00
38852;BME280;24605;50.092;9.182;2023-04-24T05:41:47;96795.19;;;8.70;100.00
38852;BME280;24605;50.092;9.182;2023-04-24T05:44:14;96798.81;;;8.69;100.00
38852;BME280;24605;50.092;9.182;2023-04-24T05:46:40;96807.94;;;8.80;100.00
38852;BME280;24605;50.092;9.182;2023-04-24T05:49:07;96808.09;;;8.93;100.00
38852;BME280;24605;50.092;9.182;2023-04-24T05:51:33;96815.84;;;8.86;100.00
38852;BME280;24605;50.092;9.182;2023-04-24T05:54:00;96824.63;;;8.78;100.00
38852;BME280;24605;50.092;9.182;2023-04-24T05:56:28;96835.47;;;8.75;100.00
38852;BME280;24605;50.092;9.182;2023-04-24T05:58:56;96831.66;;;8.78;100.00
38852;BME280;24605;50.092;9.182;2023-04-24T06:01:22;96847.88;;;8.73;100.00
38852;BME280;24605;50.092;9.182;2023-04-24T06:03:50;96841.44;;;8.91;100.00
38852;BME280;24605;50.092;9.182;2023-04-24T06:06:18;96839.25;;;8.94;100.00
38852;BME280;24605;50.092;9.182;2023-04-24T06:08:46;96837.16;;;9.05;100.00
38852;BME280;24605;50.092;9.182;2023-04-24T06:11:12;96846.34;;;9.01;100.00
38852;BME280;24605;50.092;9.182;2023-04-24T06:13:39;96826.75;;;8.90;100.00
38852;BME280;24605;50.092;9.182;2023-04-24T06:16:07;96858.19;;;8.97;100.00
38852;BME280;24605;50.092;9.182;2023-04-24T06:18:33;96847.34;;;9.00;100.00
38852;BME280;24605;50.092;9.182;2023-04-24T06:21:00;96847.19;;;9.01;100.00
38852;BME280;24605;50.092;9.182;2023-04-24T06:23:27;96851.69;;;8.92;100.00
38852;BME280;24605;50.092;9.182;2023-04-24T06:25:53;96860.53;;;8.91;100.00
38852;BME280;24605;50.092;9.182;2023-04-24T06:28:20;96865.03;;;8.98;100.00
38852;BME280;24605;50.092;9.182;2023-04-24T06:30:46;96857.44;;;9.03;100.00
38852;BME280;24605;50.092;9.182;2023-04-24T06:33:14;96864.22;;;8.97;100.00
38852;BME280;24605;50.092;9.182;2023-04-24T06:35:40;96857.69;;;9.08;100.00
38852;BME280;24605;50.092;9.182;2023-04-24T06:38:07;96843.13;;;9.42;100.00
38852;BME280;24605;50.092;9.182;2023-04-24T06:40:42;96866.25;;;9.67;100.00
38852;BME280;24605;50.092;9.182;2023-04-24T06:43:08;96857.69;;;9.51;100.00
38852;BME280;24605;50.092;9.182;2023-04-24T06:45:36;96860.28;;;9.51;100.00
38852;BME280;24605;50.092;9.182;2023-04-24T06:48:03;96822.81;;;9.22;100.00
38852;BME280;24605;50.092;9.182;2023-04-24T06:50:31;96872.75;;;9.49;100.00
38852;BME280;24605;50.092;9.182;2023-04-24T06:52:57;96872.06;;;9.40;100.00
38852;BME280;24605;50.092;9.182;2023-04-24T06:55:24;96872.34;;;9.52;100.00
38852;BME280;24605;50.092;9.182;2023-04-24T06:57:50;96885.63;;;9.51;100.00
38852;BME280;24605;50.092;9.182;2023-04-24T07:00:17;96873.63;;;9.35;100.00
38852;BME280;24605;50.092;9.182;2023-04-24T07:02:43;96873.38;;;9.30;100.00
38852;BME280;24605;50.092;9.182;2023-04-24T07:05:10;96880.59;;;9.28;100.00
38852;BME280;24605;50.092;9.182;2023-04-24T07:07:39;96892.84;;;9.05;100.00
38852;BME280;24605;50.092;9.182;2023-04-24T07:10:06;96857.38;;;8.96;100.00
38852;BME280;24605;50.092;9.182;2023-04-24T07:12:33;96870.31;;;9.04;100.00
38852;BME280;24605;50.092;9.182;2023-04-24T07:15:01;96882.28;;;8.92;100.00
38852;BME280;24605;50.092;9.182;2023-04-24T07:17:27;96880.09;;;8.96;100.00
38852;BME280;24605;50.092;9.182;2023-04-24T07:19:53;96876.78;;;8.87;99.36
38852;BME280;24605;50.092;9.182;2023-04-24T07:22:20;96886.63;;;9.06;100.00
38852;BME280;24605;50.092;9.182;2023-04-24T07:24:49;96881.00;;;9.24;100.00
38852;BME280;24605;50.092;9.182;2023-04-24T07:27:15;96891.50;;;9.31;100.00
38852;BME280;24605;50.092;9.182;2023-04-24T07:29:42;96892.69;;;9.29;100.00
38852;BME280;24605;50.092;9.182;2023-04-24T07:32:08;96881.28;;;9.15;100.00
38852;BME280;24605;50.092;9.182;2023-04-24T07:34:34;96863.16;;;8.91;100.00
38852;BME280;24605;50.092;9.182;2023-04-24T07:37:01;96890.81;;;9.22;100.00
38852;BME280;24605;50.092;9.182;2023-04-24T07:39:28;96893.31;;;9.31;100.00
38852;BME280;24605;50.092;9.182;2023-04-24T07:41:55;96891.31;;;9.33;100.00
38852;BME280;24605;50.092;9.182;2023-04-24T07:44:23;96894.91;;;9.53;100.00
38852;BME280;24605;50.092;9.182;2023-04-24T07:46:50;96874.31;;;9.44;100.00
38852;BME280;24605;50.092;9.182;2023-04-24T07:49:16;96892.31;;;9.32;100.00
38852;BME280;24605;50.092;9.182;2023-04-24T07:51:43;96877.16;;;9.05;100.00
38852;BME280;24605;50.092;9.182;2023-04-24T07:54:09;96892.13;;;9.12;100.00
38852;BME280;24605;50.092;9.182;2023-04-24T07:56:36;96884.41;;;9.47;100.00
38852;BME280;24605;50.092;9.182;2023-04-24T07:59:05;96878.41;;;9.53;96.89
38852;BME280;24605;50.092;9.182;2023-04-24T08:01:31;96895.31;;;9.50;95.05
38852;BME280;24605;50.092;9.182;2023-04-24T08:03:58;96894.53;;;9.56;97.09
38852;BME280;24605;50.092;9.182;2023-04-24T08:06:24;96904.44;;;9.61;96.02
38852;BME280;24605;50.092;9.182;2023-04-24T08:08:55;96892.41;;;9.67;95.95
38852;BME280;24605;50.092;9.182;2023-04-24T08:11:21;96891.72;;;9.80;96.22
38852;BME280;24605;50.092;9.182;2023-04-24T08:13:48;96900.31;;;9.74;94.73
38852;BME280;24605;50.092;9.182;2023-04-24T08:16:16;96889.78;;;9.67;96.50
38852;BME280;24605;50.092;9.182;2023-04-24T08:18:50;96878.47;;;9.60;97.73
38852;BME280;24605;50.092;9.182;2023-04-24T08:21:17;96891.00;;;9.64;96.97
38852;BME280;24605;50.092;9.182;2023-04-24T08:23:44;96896.09;;;10.01;97.14
38852;BME280;24605;50.092;9.182;2023-04-24T08:26:10;96892.22;;;9.97;95.20
38852;BME280;24605;50.092;9.182;2023-04-24T08:28:37;96909.59;;;9.76;95.05
38852;BME280;24605;50.092;9.182;2023-04-24T08:31:04;96908.47;;;9.85;93.91
38852;BME280;24605;50.092;9.182;2023-04-24T08:33:31;96916.47;;;9.77;93.64
38852;BME280;24605;50.092;9.182;2023-04-24T08:35:59;96920.56;;;9.86;92.49
38852;BME280;24605;50.092;9.182;2023-04-24T08:38:26;96922.53;;;9.84;90.13
38852;BME280;24605;50.092;9.182;2023-04-24T08:40:52;96927.56;;;10.08;92.48
38852;BME280;24605;50.092;9.182;2023-04-24T08:43:21;96923.53;;;10.12;89.68
38852;BME280;24605;50.092;9.182;2023-04-24T08:45:48;96932.66;;;10.23;90.40
38852;BME280;24605;50.092;9.182;2023-04-24T08:48:15;96937.41;;;10.06;89.23
38852;BME280;24605;50.092;9.182;2023-04-24T08:50:44;96941.59;;;10.00;91.36
38852;BME280;24605;50.092;9.182;2023-04-24T08:53:10;96945.47;;;10.11;91.58
38852;BME280;24605;50.092;9.182;2023-04-24T08:55:37;96939.59;;;10.02;89.69
38852;BME280;24605;50.092;9.182;2023-04-24T08:58:04;96953.31;;;10.04;89.43
38852;BME280;24605;50.092;9.182;2023-04-24T09:00:31;96910.75;;;9.95;89.32
38852;BME280;24605;50.092;9.182;2023-04-24T09:02:59;96947.72;;;10.42;88.56
38852;BME280;24605;50.092;9.182;2023-04-24T09:05:27;96936.63;;;10.40;86.99
38852;BME280;24605;50.092;9.182;2023-04-24T09:07:56;96918.50;;;10.10;90.02
38852;BME280;24605;50.092;9.182;2023-04-24T09:10:24;96948.16;;;10.46;88.56
38852;BME280;24605;50.092;9.182;2023-04-24T09:12:51;96953.06;;;10.56;89.74
38852;BME280;24605;50.092;9.182;2023-04-24T09:15:18;96956.94;;;10.66;86.70
38852;BME280;24605;50.092;9.182;2023-04-24T09:17:45;96946.81;;;10.28;86.59
38852;BME280;24605;50.092;9.182;2023-04-24T09:20:12;96927.88;;;10.26;86.65
38852;BME280;24605;50.092;9.182;2023-04-24T09:22:39;96948.84;;;10.26;87.26
38852;BME280;24605;50.092;9.182;2023-04-24T09:25:08;96958.50;;;10.26;87.61
38852;BME280;24605;50.092;9.182;2023-04-24T09:27:41;96952.81;;;10.44;89.41
38852;BME280;24605;50.092;9.182;2023-04-24T09:30:09;96951.06;;;10.58;87.75
38852;BME280;24605;50.092;9.182;2023-04-24T09:32:36;96958.75;;;10.31;86.74
38852;BME280;24605;50.092;9.182;2023-04-24T09:35:10;96963.81;;;10.11;86.42
38852;BME280;24605;50.092;9.182;2023-04-24T09:37:38;96964.38;;;10.06;87.72
38852;BME280;24605;50.092;9.182;2023-04-24T09:40:15;96971.00;;;10.02;89.20
38852;BME280;24605;50.092;9.182;2023-04-24T09:42:43;96967.31;;;10.18;89.49
38852;BME280;24605;50.092;9.182;2023-04-24T09:45:11;96962.91;;;9.97;90.81
38852;BME280;24605;50.092;9.182;2023-04-24T09:47:38;96966.53;;;9.96;91.64
38852;BME280;24605;50.092;9.182;2023-04-24T09:50:15;96927.06;;;9.47;93.59
38852;BME280;24605;50.092;9.182;2023-04-24T09:52:44;96981.56;;;9.65;93.03
38852;BME280;24605;50.092;9.182;2023-04-24T09:55:14;97004.63;;;9.77;93.41
38852;BME280;24605;50.092;9.182;2023-04-24T09:57:51;96998.84;;;9.60;91.88
38852;BME280;24605;50.092;9.182;2023-04-24T10:00:21;97001.81;;;9.56;91.43
38852;BME280;24605;50.092;9.182;2023-04-24T10:02:54;97001.63;;;9.80;91.06
38852;BME280;24605;50.092;9.182;2023-04-24T10:05:23;96997.47;;;9.85;90.70
38852;BME280;24605;50.092;9.182;2023-04-24T10:07:50;96987.00;;;9.85;88.96
38852;BME280;24605;50.092;9.182;2023-04-24T10:10:18;97007.13;;;9.85;90.47
38852;BME280;24605;50.092;9.182;2023-04-24T10:12:45;96991.47;;;9.92;89.64
38852;BME280;24605;50.092;9.182;2023-04-24T10:15:13;97008.91;;;10.06;90.16
38852;BME280;24605;50.092;9.182;2023-04-24T10:17:40;97020.19;;;10.07;89.64
38852;BME280;24605;50.092;9.182;2023-04-24T10:20:07;97012.28;;;10.00;89.32
38852;BME280;24605;50.092;9.182;2023-04-24T10:22:35;97004.84;;;10.03;89.02
38852;BME280;24605;50.092;9.182;2023-04-24T10:25:04;97015.69;;;10.22;89.03
38852;BME280;24605;50.092;9.182;2023-04-24T10:27:32;97017.25;;;10.38;87.49
38852;BME280;24605;50.092;9.182;2023-04-24T10:29:58;97016.38;;;10.59;86.32
38852;BME280;24605;50.092;9.182;2023-04-24T10:32:26;97021.16;;;10.84;85.33
38852;BME280;24605;50.092;9.182;2023-04-24T10:34:52;97019.47;;;11.05;83.22
38852;BME280;24605;50.092;9.182;2023-04-24T10:37:20;97018.00;;;10.95;85.02
38852;BME280;24605;50.092;9.182;2023-04-24T10:39:47;97016.59;;;10.93;84.46
38852;BME280;24605;50.092;9.182;2023-04-24T10:42:15;97023.25;;;10.95;84.80
38852;BME280;24605;50.092;9.182;2023-04-24T10:44:42;97006.75;;;11.08;84.87
38852;BME280;24605;50.092;9.182;2023-04-24T10:47:13;97000.59;;;11.43;83.67
38852;BME280;24605;50.092;9.182;2023-04-24T10:49:39;97010.13;;;11.51;83.70
38852;BME280;24605;50.092;9.182;2023-04-24T10:52:08;97026.50;;;11.53;84.34
38852;BME280;24605;50.092;9.182;2023-04-24T10:54:40;97038.16;;;11.43;84.62
38852;BME280;24605;50.092;9.182;2023-04-24T10:57:27;97037.66;;;11.13;86.79
38852;BME280;24605;50.092;9.182;2023-04-24T11:00:18;97033.06;;;10.87;88.25
38852;BME280;24605;50.092;9.182;2023-04-24T11:02:46;97032.44;;;10.85;89.75
38852;BME280;24605;50.092;9.182;2023-04-24T11:05:18;97031.41;;;10.44;93.62
38852;BME280;24605;50.092;9.182;2023-04-24T11:08:10;97046.78;;;10.32;95.23
38852;BME280;24605;50.092;9.182;2023-04-24T11:10:38;97048.94;;;10.22;98.18
38852;BME280;24605;50.092;9.182;2023-04-24T11:13:05;97043.84;;;9.92;100.00
38852;BME280;24605;50.092;9.182;2023-04-24T11:15:33;97054.75;;;9.95;100.00
38852;BME280;24605;50.092;9.182;2023-04-24T11:18:00;97052.44;;;9.85;100.00
38852;BME280;24605;50.092;9.182;2023-04-24T11:20:27;97052.72;;;9.76;100.00
38852;BME280;24605;50.092;9.182;2023-04-24T11:22:54;97052.59;;;9.84;100.00
38852;BME280;24605;50.092;9.182;2023-04-24T11:25:23;97051.72;;;10.20;100.00
38852;BME280;24605;50.092;9.182;2023-04-24T11:27:50;97056.16;;;10.41;100.00
38852;BME280;24605;50.092;9.182;2023-04-24T11:30:29;97038.78;;;10.12;100.00
38852;BME280;24605;50.092;9.182;2023-04-24T11:33:01;97054.63;;;9.82;100.00
38852;BME280;24605;50.092;9.182;2023-04-24T11:35:29;97059.91;;;9.67;100.00
38852;BME280;24605;50.092;9.182;2023-04-24T11:37:56;97071.16;;;9.67;100.00
38852;BME280;24605;50.092;9.182;2023-04-24T11:40:23;97072.16;;;9.66;100.00
38852;BME280;24605;50.092;9.182;2023-04-24T11:42:52;97074.16;;;9.64;100.00
38852;BME280;24605;50.092;9.182;2023-04-24T11:45:22;97032.78;;;9.75;100.00
38852;BME280;24605;50.092;9.182;2023-04-24T11:49:06;97071.97;;;10.33;100.00
38852;BME280;24605;50.092;9.182;2023-04-24T11:51:34;97070.34;;;10.32;100.00
38852;BME280;24605;50.092;9.182;2023-04-24T11:54:00;97072.97;;;10.32;100.00
38852;BME280;24605;50.092;9.182;2023-04-24T11:56:26;97081.09;;;10.59;100.00
38852;BME280;24605;50.092;9.182;2023-04-24T11:58:53;97082.63;;;10.75;100.00
38852;BME280;24605;50.092;9.182;2023-04-24T12:01:20;97083.47;;;10.82;100.00
38852;BME280;24605;50.092;9.182;2023-04-24T12:03:48;97087.03;;;11.03;100.00
38852;BME280;24605;50.092;9.182;2023-04-24T12:06:17;97079.28;;;11.29;100.00
38852;BME280;24605;50.092;9.182;2023-04-24T12:08:46;97079.34;;;11.36;100.00
38852;BME280;24605;50.092;9.182;2023-04-24T12:11:15;97087.44;;;11.48;100.00
38852;BME280;24605;50.092;9.182;2023-04-24T12:13:42;97082.13;;;11.28;100.00
38852;BME280;24605;50.092;9.182;2023-04-24T12:16:08;97078.94;;;11.39;100.00
38852;BME280;24605;50.092;9.182;2023-04-24T12:18:35;97092.47;;;12.05;97.14
38852;BME280;24605;50.092;9.182;2023-04-24T12:21:22;97060.84;;;11.65;96.46
38852;BME280;24605;50.092;9.182;2023-04-24T12:23:54;97101.78;;;12.01;96.25
38852;BME280;24605;50.092;9.182;2023-04-24T12:26:20;97103.94;;;11.90;94.57
38852;BME280;24605;50.092;9.182;2023-04-24T12:28:48;97087.78;;;11.94;94.76
38852;BME280;24605;50.092;9.182;2023-04-24T12:31:15;97090.59;;;11.92;94.72
38852;BME280;24605;50.092;9.182;2023-04-24T12:33:42;97092.69;;;12.03;93.82
38852;BME280;24605;50.092;9.182;2023-04-24T12:36:10;97083.84;;;12.38;88.88
38852;BME280;24605;50.092;9.182;2023-04-24T12:38:39;97097.59;;;12.60;85.84
38852;BME280;24605;50.092;9.182;2023-04-24T12:41:11;97089.47;;;12.15;91.37
38852;BME280;24605;50.092;9.182;2023-04-24T12:43:37;97068.84;;;12.59;87.03
38852;BME280;24605;50.092;9.182;2023-04-24T12:46:04;97081.00;;;12.66;85.27
38852;BME280;24605;50.092;9.182;2023-04-24T12:48:31;97079.59;;;12.57;84.43
38852;BME280;24605;50.092;9.182;2023-04-24T12:50:58;97079.19;;;12.60;84.62
38852;BME280;24605;50.092;9.182;2023-04-24T12:53:26;97082.00;;;12.18;87.55
38852;BME280;24605;50.092;9.182;2023-04-24T12:55:55;97085.03;;;12.29;88.66
38852;BME280;24605;50.092;9.182;2023-04-24T12:58:22;97092.50;;;12.52;84.62
38852;BME280;24605;50.092;9.182;2023-04-24T13:00:51;97088.66;;;12.61;83.22